Time;durP1;ratioP1;P1;durP2;ratioP2;P2;SDS_P1;SDS_P2;PMS_P1;PMS_P2;Temp;Humidity;BMP_temperature;BMP_pressure;BME280_temperature;BME280_humidity;BME280_pressure;Samples;Min_cycle;Max_cycle;Signal;HPM_P1;HPM_P2
2023/10/13 00:02:07;;;;;;;110.03;44.30;;;14.50;99.90;;;;;;5047309;28;20053;-79
2023/10/13 00:04:35;;;;;;;105.68;41.22;;;14.60;99.90;;;;;;5038193;28;20045;-79
2023/10/13 00:07:02;;;;;;;105.20;41.75;;;14.60;99.90;;;;;;5042563;28;20056;-80
2023/10/13 00:09:37;;;;;;;108.45;43.78;;;14.60;99.90;;;;;;5048169;28;20049;-80
2023/10/13 00:12:14;;;;;;;110.05;45.20;;;14.70;99.90;;;;;;5047719;28;20049;-80
2023/10/13 00:14:45;;;;;;;112.63;43.22;;;14.70;99.90;;;;;;5010008;28;20087;-79
2023/10/13 00:17:15;;;;;;;94.53;38.33;;;14.70;99.90;;;;;;5039930;28;20124;-78
2023/10/13 00:19:51;;;;;;;117.75;41.53;;;14.70;99.90;;;;;;5036199;28;20435;-77
2023/10/13 00:22:19;;;;;;;113.03;43.13;;;14.70;99.90;;;;;;5041749;28;20175;-78
2023/10/13 00:24:45;;;;;;;95.72;39.60;;;14.70;99.90;;;;;;5050213;28;20049;-78
2023/10/13 00:27:36;;;;;;;115.07;44.35;;;14.80;99.90;;;;;;5041690;28;20084;-77
2023/10/13 00:30:22;;;;;;;103.70;39.60;;;14.80;99.90;;;;;;5042286;28;20121;-77
2023/10/13 00:32:56;;;;;;;110.85;41.25;;;14.80;99.90;;;;;;5047816;28;20468;-78
2023/10/13 00:35:29;;;;;;;95.85;37.38;;;14.80;99.90;;;;;;5047150;28;20045;-78
2023/10/13 00:38:12;;;;;;;97.35;38.67;;;14.90;99.90;;;;;;5038884;28;20084;-78
2023/10/13 00:45:57;;;;;;;95.30;40.38;;;14.90;99.90;;;;;;5043146;28;20045;-78
2023/10/13 00:48:33;;;;;;;91.03;37.95;;;14.90;99.90;;;;;;5040596;28;20049;-78
2023/10/13 00:51:16;;;;;;;93.70;39.35;;;14.90;99.90;;;;;;5044799;28;20076;-78
2023/10/13 00:53:44;;;;;;;61.28;28.63;;;14.90;99.90;;;;;;5045456;28;20080;-77
2023/10/13 00:56:19;;;;;;;65.78;31.90;;;15.00;99.90;;;;;;5023311;28;20051;-78
2023/10/13 00:58:52;;;;;;;75.65;35.33;;;15.00;99.90;;;;;;5032271;28;20484;-80
2023/10/13 01:01:18;;;;;;;88.28;37.40;;;15.00;99.90;;;;;;5044555;28;20052;-79
2023/10/13 01:03:48;;;;;;;73.13;31.83;;;15.10;99.90;;;;;;5051950;28;20561;-78
2023/10/13 01:06:18;;;;;;;81.68;36.03;;;15.10;99.90;;;;;;5051142;28;20041;-78
2023/10/13 01:08:50;;;;;;;87.10;35.83;;;15.10;99.90;;;;;;5049922;28;20060;-79
2023/10/13 01:11:19;;;;;;;76.93;34.15;;;15.20;99.90;;;;;;5046620;28;20046;-77
2023/10/13 01:13:50;;;;;;;78.07;34.72;;;15.20;99.90;;;;;;5049255;28;20049;-78
2023/10/13 01:16:17;;;;;;;71.03;32.35;;;15.20;99.90;;;;;;5044700;28;20130;-77
2023/10/13 01:18:49;;;;;;;80.25;33.90;;;15.20;99.90;;;;;;5043792;28;20167;-77
2023/10/13 01:21:27;;;;;;;71.85;32.03;;;15.30;99.90;;;;;;5051673;28;20500;-77
2023/10/13 01:24:07;;;;;;;62.83;30.80;;;15.30;99.90;;;;;;5049970;28;20045;-78
2023/10/13 01:26:38;;;;;;;79.85;33.33;;;15.40;99.90;;;;;;5046551;28;20194;-79
2023/10/13 01:29:13;;;;;;;67.45;32.60;;;15.40;99.90;;;;;;5048807;28;20049;-77
2023/10/13 01:31:45;;;;;;;73.53;31.00;;;15.40;99.90;;;;;;5046678;28;20048;-79
2023/10/13 01:34:21;;;;;;;66.85;32.45;;;15.40;99.90;;;;;;5051936;28;20049;-77
2023/10/13 01:36:53;;;;;;;55.78;28.00;;;15.50;99.90;;;;;;5049688;28;20421;-79
2023/10/13 01:39:26;;;;;;;65.20;31.58;;;15.50;99.90;;;;;;5047262;28;20044;-79
2023/10/13 01:41:55;;;;;;;67.65;31.92;;;15.50;99.90;;;;;;5021207;28;20082;-79
2023/10/13 01:44:22;;;;;;;56.72;27.30;;;15.60;99.90;;;;;;5049777;28;20052;-77
2023/10/13 01:46:48;;;;;;;59.08;30.52;;;15.60;99.90;;;;;;5028873;28;20044;-79
2023/10/13 01:49:17;;;;;;;63.53;30.13;;;15.60;99.90;;;;;;5024313;28;20045;-80
2023/10/13 01:51:47;;;;;;;66.25;29.50;;;15.60;99.90;;;;;;5054032;28;20056;-78
2023/10/13 01:54:13;;;;;;;46.33;24.42;;;15.60;99.90;;;;;;5054449;28;20128;-79
2023/10/13 01:56:43;;;;;;;44.13;24.63;;;15.60;99.90;;;;;;5041615;28;20124;-79
2023/10/13 01:59:12;;;;;;;57.28;28.35;;;15.60;99.90;;;;;;5033857;28;20135;-79
2023/10/13 02:01:40;;;;;;;54.80;26.65;;;15.60;99.90;;;;;;5048092;28;20061;-80
2023/10/13 02:04:06;;;;;;;57.92;27.40;;;15.70;99.90;;;;;;5054486;28;20143;-79
2023/10/13 02:06:36;;;;;;;60.65;30.30;;;15.70;99.90;;;;;;5045170;28;20132;-78
2023/10/13 02:09:17;;;;;;;62.72;29.75;;;15.70;99.90;;;;;;5036278;28;20052;-79
2023/10/13 02:11:47;;;;;;;57.45;29.58;;;15.70;99.90;;;;;;5037666;28;20079;-81
2023/10/13 02:14:16;;;;;;;56.80;27.40;;;15.70;99.90;;;;;;5052228;28;20049;-80
2023/10/13 02:16:42;;;;;;;59.90;27.60;;;15.80;99.90;;;;;;5050417;28;20045;-79
2023/10/13 02:19:08;;;;;;;53.95;27.27;;;15.80;99.90;;;;;;5049889;28;20511;-81
2023/10/13 02:21:43;;;;;;;47.38;25.60;;;15.80;99.90;;;;;;5051457;28;20057;-79
2023/10/13 02:24:13;;;;;;;54.35;28.10;;;15.80;99.90;;;;;;5033392;28;20090;-79
2023/10/13 02:26:40;;;;;;;58.70;26.38;;;15.70;99.90;;;;;;5042245;28;20088;-79
2023/10/13 02:29:12;;;;;;;48.13;26.73;;;15.80;99.90;;;;;;5051832;28;20048;-78
2023/10/13 02:31:43;;;;;;;53.13;25.67;;;15.80;99.90;;;;;;5050592;28;20049;-78
2023/10/13 02:34:09;;;;;;;60.70;29.98;;;15.80;99.90;;;;;;5044845;28;20059;-79
2023/10/13 02:36:54;;;;;;;56.17;28.20;;;15.80;99.90;;;;;;5041326;28;20037;-78
2023/10/13 02:39:36;;;;;;;70.95;31.85;;;15.80;99.90;;;;;;5042175;28;20055;-77
2023/10/13 02:42:06;;;;;;;55.95;27.17;;;15.80;99.90;;;;;;5042125;28;20063;-78
2023/10/13 02:44:36;;;;;;;57.17;30.30;;;15.80;99.90;;;;;;5045511;28;20046;-79
2023/10/13 02:47:14;;;;;;;58.63;28.05;;;15.90;99.90;;;;;;5043431;28;20045;-77
2023/10/13 02:49:43;;;;;;;53.72;27.23;;;15.80;99.90;;;;;;5033306;28;20045;-78
2023/10/13 02:52:09;;;;;;;59.13;28.85;;;15.80;99.90;;;;;;5042976;28;20034;-78
2023/10/13 02:54:47;;;;;;;43.72;24.20;;;15.90;99.90;;;;;;5051040;28;20045;-79
2023/10/13 02:57:15;;;;;;;45.53;25.27;;;15.90;99.90;;;;;;5047242;28;20098;-77
2023/10/13 02:59:46;;;;;;;52.35;27.27;;;15.90;99.90;;;;;;5021426;28;20060;-78
2023/10/13 03:02:25;;;;;;;46.58;26.55;;;15.90;99.90;;;;;;5043413;28;20060;-79
2023/10/13 03:04:51;;;;;;;66.10;31.85;;;15.80;99.90;;;;;;5032727;28;20045;-78
2023/10/13 03:07:23;;;;;;;44.85;26.20;;;15.90;99.90;;;;;;5049533;28;20095;-79
2023/10/13 03:09:50;;;;;;;61.90;32.25;;;15.90;99.90;;;;;;5040138;28;20624;-78
2023/10/13 03:12:16;;;;;;;57.20;30.10;;;15.90;99.90;;;;;;5042880;28;20056;-79
2023/10/13 03:14:47;;;;;;;55.35;30.05;;;15.90;99.90;;;;;;5052282;28;20514;-78
2023/10/13 03:17:22;;;;;;;53.80;29.80;;;15.90;99.90;;;;;;5048332;28;20156;-78
2023/10/13 03:19:51;;;;;;;45.67;26.30;;;15.90;99.90;;;;;;5050053;28;20119;-79
2023/10/13 03:22:18;;;;;;;50.42;26.23;;;16.00;99.90;;;;;;5051918;28;20492;-79
2023/10/13 03:24:47;;;;;;;44.08;25.70;;;16.00;99.90;;;;;;5052607;28;20053;-78
2023/10/13 03:27:16;;;;;;;44.25;24.70;;;15.90;99.90;;;;;;5027275;28;20037;-78
2023/10/13 03:29:43;;;;;;;38.97;23.58;;;15.90;99.90;;;;;;5051643;28;20053;-78
2023/10/13 03:32:14;;;;;;;33.60;21.95;;;15.90;99.90;;;;;;5033032;28;20045;-79
2023/10/13 03:34:56;;;;;;;34.35;20.25;;;15.90;99.90;;;;;;5032645;28;20056;-78
2023/10/13 03:37:40;;;;;;;32.97;20.85;;;15.90;99.90;;;;;;5041577;28;20056;-78
2023/10/13 03:43:22;;;;;;;32.72;19.77;;;15.80;99.90;;;;;;5051131;28;20343;-79
2023/10/13 03:45:47;;;;;;;36.88;22.08;;;15.80;99.90;;;;;;5049148;28;20059;-78
2023/10/13 03:51:03;;;;;;;40.58;22.42;;;15.90;99.90;;;;;;5043256;28;20133;-80
2023/10/13 03:53:54;;;;;;;42.25;23.13;;;15.90;99.90;;;;;;5035902;28;20037;-79
2023/10/13 03:56:28;;;;;;;40.40;22.08;;;15.90;99.90;;;;;;5048330;28;20044;-79
2023/10/13 03:58:58;;;;;;;43.22;23.10;;;16.00;99.90;;;;;;5037225;28;20409;-80
2023/10/13 04:01:31;;;;;;;43.30;23.55;;;15.90;99.90;;;;;;5042770;28;20056;-79
2023/10/13 04:04:03;;;;;;;34.28;20.33;;;16.00;99.90;;;;;;5050250;28;20479;-78
2023/10/13 04:17:22;;;;;;;44.25;19.70;;;15.90;99.90;;;;;;5046019;28;20041;-78
2023/10/13 04:33:36;;;;;;;36.92;18.65;;;16.00;99.90;;;;;;5040486;28;20064;-78
2023/10/13 04:36:01;;;;;;;31.25;18.08;;;15.90;99.90;;;;;;5044207;28;20056;-79
2023/10/13 04:38:34;;;;;;;35.00;19.25;;;15.90;99.90;;;;;;5049789;28;20045;-80
2023/10/13 04:41:01;;;;;;;37.22;18.17;;;16.00;99.90;;;;;;5031945;28;20367;-78
2023/10/13 04:43:33;;;;;;;31.00;16.45;;;16.00;99.90;;;;;;5026046;28;20102;-79
2023/10/13 04:46:14;;;;;;;35.25;18.15;;;15.90;99.90;;;;;;5047982;28;20077;-80
2023/10/13 04:48:40;;;;;;;35.10;19.13;;;16.00;99.90;;;;;;5022622;28;20079;-76
2023/10/13 04:51:34;;;;;;;38.70;19.48;;;16.00;99.90;;;;;;5039238;28;20463;-80
2023/10/13 04:54:00;;;;;;;35.78;17.77;;;16.00;99.90;;;;;;5040499;28;20042;-79
2023/10/13 04:59:17;;;;;;;36.13;19.73;;;16.00;99.90;;;;;;5039869;28;20099;-81
2023/10/13 06:29:53;;;;;;;11.45;7.47;;;15.70;99.90;;;;;;5036560;28;20548;-84
2023/10/13 06:32:25;;;;;;;10.43;7.00;;;15.70;99.90;;;;;;5048780;28;20494;-82
2023/10/13 06:35:44;;;;;;;10.68;7.25;;;15.70;99.90;;;;;;5047804;28;20493;-83
2023/10/13 06:37:52;;;;;;;12.38;6.78;;;15.80;99.90;;;;;;5051639;28;20111;-83
2023/10/13 06:42:47;;;;;;;14.65;7.57;;;15.80;99.90;;;;;;5054264;28;20106;-80
2023/10/13 06:45:12;;;;;;;10.27;6.18;;;15.80;99.90;;;;;;5053824;28;20118;-80
2023/10/13 06:47:45;;;;;;;9.30;5.55;;;15.80;99.90;;;;;;5051943;28;20036;-80
2023/10/13 06:50:15;;;;;;;10.50;5.53;;;15.80;99.90;;;;;;5052441;28;20041;-81
2023/10/13 06:52:45;;;;;;;9.68;5.97;;;15.80;99.90;;;;;;5047669;28;20099;-79
2023/10/13 06:55:17;;;;;;;8.32;5.45;;;15.80;99.90;;;;;;5034191;28;20045;-79
2023/10/13 06:57:46;;;;;;;9.23;6.05;;;15.90;99.90;;;;;;5052587;28;20040;-79
2023/10/13 07:00:28;;;;;;;8.40;6.07;;;15.90;99.90;;;;;;5036727;28;20381;-80
2023/10/13 07:02:54;;;;;;;12.13;5.80;;;15.90;99.90;;;;;;5046121;28;20057;-80
2023/10/13 07:05:20;;;;;;;9.07;5.85;;;15.90;99.90;;;;;;5052020;28;20103;-80
2023/10/13 07:07:47;;;;;;;8.13;4.63;;;15.90;99.90;;;;;;5052766;28;20044;-81
2023/10/13 07:10:13;;;;;;;9.80;4.53;;;16.00;99.90;;;;;;5049679;28;20041;-81
2023/10/13 07:12:43;;;;;;;9.93;4.30;;;16.00;99.90;;;;;;5051455;28;20041;-81
2023/10/13 07:15:19;;;;;;;13.68;5.57;;;16.00;99.90;;;;;;5045009;28;20041;-81
2023/10/13 07:17:54;;;;;;;10.05;4.78;;;16.00;99.90;;;;;;5052362;28;20045;-81
2023/10/13 07:22:57;;;;;;;10.40;5.22;;;16.00;99.90;;;;;;5048429;28;20056;-81
2023/10/13 07:25:25;;;;;;;9.38;4.57;;;16.00;99.90;;;;;;5052772;28;20477;-81
2023/10/13 07:27:51;;;;;;;11.27;5.15;;;16.10;99.90;;;;;;5049226;28;20041;-83
2023/10/13 07:30:19;;;;;;;8.35;4.63;;;16.10;99.90;;;;;;5043474;28;20473;-81
2023/10/13 07:32:46;;;;;;;9.65;4.60;;;16.10;99.90;;;;;;5044449;28;20041;-80
2023/10/13 07:35:17;;;;;;;8.88;4.60;;;16.10;99.90;;;;;;5040214;28;20057;-80
2023/10/13 07:37:44;;;;;;;10.82;4.35;;;16.10;99.90;;;;;;5051985;28;20073;-81
2023/10/13 07:43:00;;;;;;;14.48;5.20;;;16.10;99.90;;;;;;5051316;28;20060;-81
2023/10/13 07:45:36;;;;;;;10.50;4.65;;;16.10;99.90;;;;;;5051520;28;20472;-82
2023/10/13 07:48:19;;;;;;;10.07;4.63;;;16.10;99.90;;;;;;5052498;28;20088;-80
2023/10/13 07:50:45;;;;;;;9.90;4.72;;;16.10;99.90;;;;;;5040129;28;20107;-81
2023/10/13 07:53:23;;;;;;;12.45;6.38;;;16.10;99.90;;;;;;5050703;28;20049;-81
2023/10/13 07:55:55;;;;;;;9.55;4.82;;;16.10;99.90;;;;;;5051107;28;20049;-81
2023/10/13 07:58:27;;;;;;;9.18;4.55;;;16.10;99.90;;;;;;5046973;28;20469;-81
2023/10/13 08:03:34;;;;;;;10.77;4.68;;;16.10;99.90;;;;;;5032147;28;20053;-81
2023/10/13 08:06:19;;;;;;;10.07;5.55;;;16.10;99.90;;;;;;5046942;28;20049;-81
2023/10/13 08:08:49;;;;;;;12.80;5.82;;;16.10;99.90;;;;;;5030884;28;20444;-82
2023/10/13 08:13:53;;;;;;;16.05;5.88;;;16.10;99.90;;;;;;5049852;28;20049;-82
2023/10/13 08:16:23;;;;;;;14.90;5.57;;;16.10;99.90;;;;;;5049561;28;20044;-81
2023/10/13 08:18:52;;;;;;;13.32;5.68;;;16.10;99.90;;;;;;5050845;28;20049;-82
2023/10/13 08:21:23;;;;;;;11.02;5.32;;;16.20;99.90;;;;;;5042744;28;20119;-79
2023/10/13 08:26:56;;;;;;;10.57;5.50;;;16.20;99.90;;;;;;5048990;28;20068;-84
2023/10/13 08:37:28;;;;;;;12.38;6.22;;;16.20;99.90;;;;;;5034746;28;20053;-82
2023/10/13 08:45:20;;;;;;;16.27;6.82;;;16.30;99.90;;;;;;5050499;28;20120;-83
2023/10/13 08:48:12;;;;;;;13.55;6.35;;;16.30;99.90;;;;;;5045375;28;20049;-82
2023/10/13 08:56:17;;;;;;;15.02;7.68;;;16.40;99.90;;;;;;5033364;28;20061;-81
2023/10/13 09:09:28;;;;;;;17.02;8.13;;;16.50;99.90;;;;;;5042915;28;20049;-82
2023/10/13 09:12:10;;;;;;;19.65;7.88;;;16.60;99.90;;;;;;5049348;28;20052;-81
2023/10/13 09:14:56;;;;;;;21.30;9.05;;;16.60;99.90;;;;;;5049647;28;20060;-81
2023/10/13 09:17:35;;;;;;;19.83;8.95;;;16.70;99.90;;;;;;5053171;28;20052;-82
2023/10/13 09:25:37;;;;;;;15.18;7.88;;;16.90;99.90;;;;;;5053591;28;20107;-82
2023/10/13 09:28:14;;;;;;;17.58;7.78;;;16.90;99.90;;;;;;5030537;28;20045;-83
2023/10/13 09:30:53;;;;;;;18.90;8.38;;;16.90;99.90;;;;;;5051787;28;20049;-81
2023/10/13 09:33:28;;;;;;;18.63;9.02;;;17.00;99.90;;;;;;5040191;28;20084;-82
2023/10/13 09:35:54;;;;;;;18.42;8.63;;;17.00;99.90;;;;;;5049882;28;20357;-82
2023/10/13 09:38:20;;;;;;;14.88;8.18;;;17.10;99.90;;;;;;5053489;28;20055;-82
2023/10/13 09:40:49;;;;;;;16.60;8.23;;;17.10;99.90;;;;;;5037404;28;20045;-82
2023/10/13 09:43:19;;;;;;;15.57;7.65;;;17.20;99.90;;;;;;5053778;28;20500;-81
2023/10/13 09:46:15;;;;;;;17.30;7.70;;;17.30;99.90;;;;;;5054383;28;20037;-82
2023/10/13 09:48:46;;;;;;;18.10;7.40;;;17.30;99.90;;;;;;5050191;28;20435;-80
2023/10/13 09:51:19;;;;;;;14.70;7.05;;;17.40;99.90;;;;;;5051657;28;20050;-82
2023/10/13 09:53:53;;;;;;;14.90;7.13;;;17.40;99.90;;;;;;5046742;28;20381;-81
2023/10/13 09:56:28;;;;;;;12.52;7.30;;;17.50;99.90;;;;;;5046632;28;20052;-82
2023/10/13 09:59:12;;;;;;;16.48;7.20;;;17.60;99.90;;;;;;5043387;28;20056;-83
2023/10/13 10:04:50;;;;;;;15.23;6.47;;;17.70;99.90;;;;;;5045482;28;20139;-82
2023/10/13 10:07:28;;;;;;;13.30;5.55;;;17.70;99.90;;;;;;5047584;28;20049;-83
2023/10/13 10:09:58;;;;;;;14.23;5.97;;;17.70;99.90;;;;;;5049054;28;20080;-86
2023/10/13 10:12:35;;;;;;;17.10;6.90;;;17.80;99.90;;;;;;5052796;28;20508;-85
2023/10/13 10:15:20;;;;;;;16.38;6.45;;;17.90;99.90;;;;;;5050738;28;20040;-82
2023/10/13 10:17:46;;;;;;;17.05;5.88;;;17.90;99.90;;;;;;5052272;28;20102;-84
2023/10/13 10:20:19;;;;;;;13.43;5.65;;;18.00;99.90;;;;;;5036931;28;20092;-85
2023/10/13 10:22:58;;;;;;;12.98;5.57;;;18.00;99.90;;;;;;5052437;28;20102;-84
2023/10/13 10:25:34;;;;;;;18.48;6.28;;;18.10;99.90;;;;;;5053099;28;20484;-83
2023/10/13 10:28:05;;;;;;;12.55;5.50;;;18.20;99.90;;;;;;5051623;28;20045;-85
2023/10/13 10:30:33;;;;;;;13.63;5.70;;;18.10;99.90;;;;;;5045957;28;20072;-83
2023/10/13 10:33:01;;;;;;;12.98;6.05;;;18.10;99.90;;;;;;5052819;28;20378;-84
2023/10/13 10:35:32;;;;;;;12.80;5.70;;;18.20;99.90;;;;;;5046166;28;21620;-84
2023/10/13 10:38:32;;;;;;;15.20;5.70;;;18.20;99.90;;;;;;5053335;28;20171;-83
2023/10/13 10:41:00;;;;;;;14.65;5.68;;;18.30;99.90;;;;;;5052527;28;20488;-84
2023/10/13 10:43:42;;;;;;;19.23;6.32;;;18.30;99.90;;;;;;5044606;28;20451;-83
2023/10/13 10:46:10;;;;;;;18.85;6.00;;;18.40;99.90;;;;;;5052547;28;20111;-82
2023/10/13 10:48:42;;;;;;;13.60;5.10;;;18.40;99.90;;;;;;5050954;28;20600;-88
2023/10/13 10:53:44;;;;;;;17.17;6.32;;;18.50;99.90;;;;;;5052241;28;20090;-87
2023/10/13 10:56:20;;;;;;;18.15;5.63;;;18.50;99.90;;;;;;5052754;28;20049;-85
2023/10/13 10:58:54;;;;;;;15.55;4.70;;;18.50;99.90;;;;;;5050468;28;20049;-90
2023/10/13 11:01:33;;;;;;;15.55;5.53;;;18.60;99.90;;;;;;5052685;28;20098;-87
2023/10/13 11:06:55;;;;;;;14.77;5.57;;;18.70;99.90;;;;;;5049235;28;20076;-90
2023/10/13 11:09:52;;;;;;;19.13;5.13;;;18.90;99.90;;;;;;5033692;28;20047;-90
2023/10/13 11:12:26;;;;;;;13.85;4.78;;;19.00;99.90;;;;;;5035278;28;20396;-90
2023/10/13 11:15:13;;;;;;;15.07;5.13;;;19.10;99.90;;;;;;5042046;28;20492;-90
2023/10/13 11:17:43;;;;;;;18.85;6.07;;;19.10;99.90;;;;;;5046719;28;20044;-92
2023/10/13 11:20:17;;;;;;;17.75;5.03;;;19.10;99.90;;;;;;5039324;28;20049;-85
2023/10/13 11:22:50;;;;;;;13.57;5.35;;;19.20;99.90;;;;;;5049487;28;20049;-88
2023/10/13 11:25:29;;;;;;;19.02;5.57;;;19.20;99.90;;;;;;5052132;28;20089;-86
2023/10/13 11:27:58;;;;;;;13.80;5.43;;;19.10;99.90;;;;;;5052411;28;20132;-87
2023/10/13 11:30:30;;;;;;;15.00;5.30;;;19.20;99.90;;;;;;5050308;28;20051;-87
2023/10/13 11:33:05;;;;;;;15.75;5.03;;;19.20;99.90;;;;;;5049425;28;20052;-88
2023/10/13 11:38:25;;;;;;;15.27;5.00;;;19.20;99.90;;;;;;5037005;28;20045;-87
2023/10/13 11:48:41;;;;;;;16.40;5.95;;;19.30;99.90;;;;;;5050592;28;20102;-87
2023/10/13 11:51:31;;;;;;;14.65;5.82;;;19.30;99.90;;;;;;5050427;28;20107;-89
2023/10/13 11:53:58;;;;;;;12.63;5.32;;;19.30;99.90;;;;;;5050901;28;20055;-83
2023/10/13 11:56:24;;;;;;;12.52;5.15;;;19.30;99.90;;;;;;5042336;28;20057;-87
2023/10/13 11:58:50;;;;;;;16.23;5.25;;;19.20;99.90;;;;;;5031910;28;20040;-88
2023/10/13 12:04:30;;;;;;;15.02;5.20;;;19.20;99.90;;;;;;5051991;28;20094;-87
2023/10/13 12:07:14;;;;;;;19.98;6.28;;;19.30;99.90;;;;;;5051743;28;20148;-86
2023/10/13 12:12:25;;;;;;;16.52;5.53;;;19.30;99.90;;;;;;5032561;28;20057;-86
2023/10/13 12:14:55;;;;;;;18.80;5.68;;;19.30;99.90;;;;;;5032817;28;20136;-86
2023/10/13 12:17:25;;;;;;;18.85;5.18;;;19.30;99.90;;;;;;5047185;28;20052;-84
2023/10/13 12:19:58;;;;;;;18.55;5.72;;;19.30;99.90;;;;;;5042325;28;20048;-83
2023/10/13 12:22:28;;;;;;;12.95;5.28;;;19.30;99.90;;;;;;5045168;28;20065;-87
2023/10/13 12:24:54;;;;;;;17.45;5.70;;;19.20;99.90;;;;;;5050284;28;20053;-85
2023/10/13 12:27:20;;;;;;;14.75;6.07;;;19.20;99.90;;;;;;5062014;28;20079;-87
2023/10/13 12:29:53;;;;;;;20.83;6.25;;;19.20;99.90;;;;;;5039722;28;20045;-84
2023/10/13 12:32:25;;;;;;;15.02;6.38;;;19.10;99.90;;;;;;5050722;28;20060;-86
2023/10/13 12:51:23;;;;;;;14.88;6.00;;;18.90;99.90;;;;;;5055381;28;20076;-85
2023/10/13 12:53:55;;;;;;;17.92;6.68;;;18.90;99.90;;;;;;5045027;28;20117;-85
2023/10/13 12:56:28;;;;;;;16.30;6.78;;;18.80;99.90;;;;;;5053836;28;20045;-84
2023/10/13 12:58:54;;;;;;;15.93;7.10;;;18.80;99.90;;;;;;5054865;28;20107;-88
2023/10/13 13:01:27;;;;;;;15.07;6.05;;;18.80;99.90;;;;;;5049670;28;20132;-88
2023/10/13 13:03:56;;;;;;;18.58;6.68;;;18.80;99.90;;;;;;5053711;28;20087;-88
2023/10/13 13:06:25;;;;;;;13.85;6.25;;;18.80;99.90;;;;;;5055153;28;20045;-88
2023/10/13 13:09:00;;;;;;;18.75;6.85;;;18.90;99.90;;;;;;5055015;28;20048;-88
2023/10/13 13:11:29;;;;;;;14.30;6.35;;;18.80;99.90;;;;;;5053607;28;20048;-86
2023/10/13 13:13:55;;;;;;;18.50;6.78;;;18.80;99.90;;;;;;5034443;28;20093;-86
2023/10/13 13:16:23;;;;;;;15.05;6.90;;;18.80;99.90;;;;;;5051484;28;20037;-89
2023/10/13 13:18:50;;;;;;;22.90;7.60;;;18.80;99.90;;;;;;5041673;28;20401;-89
2023/10/13 13:21:23;;;;;;;19.13;7.35;;;18.80;99.90;;;;;;5031878;28;20060;-88
2023/10/13 13:23:55;;;;;;;19.92;7.75;;;18.80;99.90;;;;;;5038580;28;20049;-87
2023/10/13 13:26:22;;;;;;;19.83;7.57;;;18.80;99.90;;;;;;5038079;28;20049;-87
2023/10/13 13:28:50;;;;;;;16.42;7.55;;;18.70;99.90;;;;;;5054838;28;20083;-87
2023/10/13 13:31:25;;;;;;;13.32;6.53;;;18.70;99.90;;;;;;5038344;28;20091;-88
2023/10/13 13:33:50;;;;;;;19.50;7.82;;;18.70;99.90;;;;;;5039439;28;20140;-86
2023/10/13 13:36:16;;;;;;;19.58;7.85;;;18.60;99.90;;;;;;5035352;28;20549;-87
2023/10/13 13:38:45;;;;;;;19.33;7.35;;;18.60;99.90;;;;;;5048623;28;20056;-88
2023/10/13 13:41:18;;;;;;;19.50;7.80;;;18.50;99.90;;;;;;5039280;28;20123;-88
2023/10/13 13:43:54;;;;;;;17.65;7.60;;;18.50;99.90;;;;;;5053976;28;20144;-86
2023/10/13 13:46:40;;;;;;;14.35;7.07;;;18.50;99.90;;;;;;5033407;28;20049;-90
2023/10/13 13:49:17;;;;;;;24.23;8.13;;;18.50;99.90;;;;;;5051813;28;20131;-89
2023/10/13 13:51:52;;;;;;;18.85;7.68;;;18.50;99.90;;;;;;5054062;28;20532;-88
2023/10/13 13:54:19;;;;;;;26.58;8.82;;;18.40;99.90;;;;;;5038430;28;20423;-88
2023/10/13 13:56:45;;;;;;;20.15;8.68;;;18.40;99.90;;;;;;5053659;28;20103;-87
2023/10/13 13:59:15;;;;;;;16.65;7.68;;;18.40;99.90;;;;;;5036806;28;20049;-87
2023/10/13 14:01:44;;;;;;;18.23;8.43;;;18.40;99.90;;;;;;5053591;28;20044;-88
2023/10/13 14:04:10;;;;;;;19.73;8.95;;;18.40;99.90;;;;;;5048534;28;20110;-89
2023/10/13 14:06:37;;;;;;;17.95;7.60;;;18.40;99.90;;;;;;5051934;28;20082;-89
2023/10/13 14:09:14;;;;;;;21.85;7.55;;;18.30;99.90;;;;;;5051941;28;20089;-87
2023/10/13 14:14:33;;;;;;;17.90;7.55;;;18.30;99.90;;;;;;5049998;28;20120;-89
2023/10/13 14:17:06;;;;;;;19.65;7.97;;;18.20;99.90;;;;;;5048425;28;20045;-85
2023/10/13 14:19:33;;;;;;;18.92;7.68;;;18.30;99.90;;;;;;5053663;28;20056;-89
2023/10/13 14:22:06;;;;;;;19.27;8.25;;;18.30;99.90;;;;;;5053304;28;20048;-88
2023/10/13 14:24:35;;;;;;;20.20;8.32;;;18.30;99.90;;;;;;5053332;28;20087;-87
2023/10/13 14:27:17;;;;;;;17.13;7.85;;;18.30;99.90;;;;;;5055198;28;20045;-88
2023/10/13 14:29:44;;;;;;;24.88;8.38;;;18.20;99.90;;;;;;5054005;28;20057;-88
2023/10/13 14:32:12;;;;;;;19.00;8.45;;;18.30;99.90;;;;;;5037366;28;20049;-86
2023/10/13 14:34:39;;;;;;;19.58;7.60;;;18.30;99.90;;;;;;5053518;28;20416;-89
2023/10/13 14:37:05;;;;;;;18.92;7.47;;;18.30;99.90;;;;;;5053808;28;20048;-88
2023/10/13 14:39:34;;;;;;;19.45;7.63;;;18.30;99.90;;;;;;5039235;28;20053;-89
2023/10/13 14:42:02;;;;;;;22.67;8.73;;;18.20;99.90;;;;;;5032982;28;20044;-88
2023/10/13 14:44:28;;;;;;;19.08;8.05;;;18.20;99.90;;;;;;5034137;28;20119;-89
2023/10/13 14:46:54;;;;;;;20.80;7.57;;;18.20;99.90;;;;;;5035718;28;20456;-89
2023/10/13 14:49:21;;;;;;;19.42;7.05;;;18.20;99.90;;;;;;5042805;28;20143;-88
2023/10/13 14:51:49;;;;;;;18.98;7.28;;;18.20;99.90;;;;;;5046893;28;20092;-89
2023/10/13 14:54:15;;;;;;;19.48;7.03;;;18.30;99.90;;;;;;5045817;28;20077;-84
2023/10/13 14:56:42;;;;;;;19.35;8.50;;;18.30;99.90;;;;;;5033127;28;20396;-84
2023/10/13 14:59:16;;;;;;;18.65;7.63;;;18.30;99.90;;;;;;5034258;28;20376;-84
2023/10/13 15:01:43;;;;;;;21.55;8.15;;;18.30;99.90;;;;;;5051742;28;20045;-85
2023/10/13 15:04:08;;;;;;;17.75;7.35;;;18.30;99.90;;;;;;5051361;28;20052;-83
2023/10/13 15:06:34;;;;;;;17.00;7.47;;;18.30;99.90;;;;;;5051613;28;20094;-84
2023/10/13 15:09:00;;;;;;;18.85;8.32;;;18.30;99.90;;;;;;5032104;28;20428;-84
2023/10/13 15:11:35;;;;;;;19.30;7.82;;;18.30;99.90;;;;;;5052299;28;20041;-85
2023/10/13 15:14:02;;;;;;;26.67;8.98;;;18.30;99.90;;;;;;5052787;28;20045;-85
2023/10/13 15:16:28;;;;;;;20.83;8.93;;;18.20;99.90;;;;;;5053863;28;20123;-84
2023/10/13 15:18:54;;;;;;;24.38;9.32;;;18.20;99.90;;;;;;5053489;28;20132;-85
2023/10/13 15:21:37;;;;;;;22.58;9.55;;;18.20;99.90;;;;;;5034553;28;20057;-86
2023/10/13 15:24:13;;;;;;;16.63;8.80;;;18.10;99.90;;;;;;5034195;28;20458;-84
2023/10/13 15:26:41;;;;;;;17.35;8.32;;;18.10;99.90;;;;;;5032506;28;20061;-85
2023/10/13 15:29:12;;;;;;;23.00;9.40;;;18.00;99.90;;;;;;5044303;28;20049;-85
2023/10/13 15:31:41;;;;;;;20.90;9.20;;;18.00;99.90;;;;;;5038721;28;20049;-86
2023/10/13 15:34:15;;;;;;;18.73;10.13;;;17.90;99.90;;;;;;5052026;28;20061;-85
2023/10/13 15:36:45;;;;;;;19.58;9.48;;;17.90;99.90;;;;;;5051949;28;20056;-86
2023/10/13 15:39:15;;;;;;;22.02;10.35;;;17.90;99.90;;;;;;5045474;28;20064;-83
2023/10/13 15:41:42;;;;;;;20.70;10.35;;;17.80;99.90;;;;;;5047336;28;20174;-84
2023/10/13 15:44:13;;;;;;;22.75;10.52;;;17.80;99.90;;;;;;5045578;28;20041;-85
2023/10/13 15:46:39;;;;;;;24.75;11.13;;;17.80;99.90;;;;;;5060254;28;20052;-83
2023/10/13 15:49:08;;;;;;;22.52;10.45;;;17.70;99.90;;;;;;5043292;28;20080;-84
2023/10/13 15:51:36;;;;;;;20.25;10.10;;;17.70;99.90;;;;;;5042762;28;20071;-84
2023/10/13 15:54:03;;;;;;;25.13;11.20;;;17.70;99.90;;;;;;5051934;28;20057;-85
2023/10/13 15:56:32;;;;;;;18.02;10.70;;;17.60;99.90;;;;;;5051455;28;20055;-85
2023/10/13 15:59:06;;;;;;;24.20;10.07;;;17.60;99.90;;;;;;5049108;28;20045;-84
2023/10/13 16:01:34;;;;;;;18.45;10.25;;;17.60;99.90;;;;;;5038188;28;20128;-84
2023/10/13 16:04:00;;;;;;;21.98;11.07;;;17.60;99.90;;;;;;5051247;28;20048;-85
2023/10/13 16:06:25;;;;;;;24.77;10.48;;;17.60;99.90;;;;;;5051266;28;20106;-85
2023/10/13 16:08:52;;;;;;;19.98;10.20;;;17.60;99.90;;;;;;5041958;28;20363;-85
2023/10/13 16:11:18;;;;;;;22.70;9.77;;;17.60;99.90;;;;;;5049048;28;20075;-83
2023/10/13 16:13:45;;;;;;;19.00;10.23;;;17.60;99.90;;;;;;5051052;28;20055;-84
2023/10/13 16:16:18;;;;;;;24.80;11.10;;;17.60;99.90;;;;;;5052311;28;20040;-83
2023/10/13 16:18:45;;;;;;;18.17;8.32;;;17.50;99.90;;;;;;5047688;28;20443;-86
2023/10/13 16:21:17;;;;;;;22.17;9.85;;;17.50;99.90;;;;;;5064987;28;20193;-84
2023/10/13 16:23:48;;;;;;;17.00;8.43;;;17.50;99.90;;;;;;5050882;28;20350;-85
2023/10/13 16:26:21;;;;;;;19.30;9.00;;;17.50;99.90;;;;;;5050611;28;20060;-85
2023/10/13 16:28:53;;;;;;;26.23;8.88;;;17.50;99.90;;;;;;5049880;28;20045;-86
2023/10/13 16:31:23;;;;;;;18.20;8.10;;;17.50;99.90;;;;;;5043076;28;20052;-86
2023/10/13 16:33:50;;;;;;;16.63;8.30;;;17.50;99.90;;;;;;5025095;28;20401;-84
2023/10/13 16:36:21;;;;;;;15.88;7.18;;;17.50;99.90;;;;;;5046145;28;20045;-86
2023/10/13 16:38:48;;;;;;;16.05;7.30;;;17.50;99.90;;;;;;5046056;28;20048;-86